Explorer Of The Seas — C6SE4 — position and weather

sailwx.info

Track history (hours):
 
Tides and Currents Weather Stations Pressure Air Temp Water Temp Dewpoint Dewpoint Depression Visibility Wind Speed Wind Dir Waves Ship Positions

Explorer Of The Seas

Operator: Royal Caribbean Cruises Ltd

Last reported at 2017-May-28 04:00 UTC. Time now 2017-May-28 06:46 UTC.
Position N 53°24' W 133°18'.

Length 311 m; draft 9.2 m.

Type: Passenger vessel. MMSI: 311316000.

Wind from 020 at 17 knots

Barometer 1019.0 mb
Air temperature 9.0 ° C
Water temperature 9.0 ° C

Date/timePositionNaut miles runAvg speedWind from/ knotsBaromVisibWave heightAir tempDewpointWater temp
2017-May-28 04:00N 53°24' W 133°18'9519.0 020 / 171019.0 9.0 9.0
2017-May-27 23:00N 52°06' W 131°48'323386.7
2017-May-27 22:09N 48°34' W 125°25'1 8.6
2017-May-27 22:00N 48°34' W 125°24'5 8.6
2017-May-27 21:29N 48°32' W 125°18'4 9.4
2017-May-27 21:00N 48°32' W 125°11'241120.2
2017-May-27 19:00N 51°00' W 130°06'8120.4 360 / 201021.0 5.4 10.010.010.5
2017-May-27 15:00N 50°06' W 128°30'3719.9 360 / 221019.0 12.012.012.0
2017-May-27 13:08N 49°43' W 127°45'420.5
2017-May-27 12:57N 49°40' W 127°41'920.2
2017-May-27 12:30N 49°35' W 127°30'1020.4
2017-May-27 12:00N 49°28' W 127°18'1120.7
2017-May-27 11:27N 49°22' W 127°04'921.1
2017-May-27 11:00N 49°15' W 126°53'3194.9
2017-May-27 11:00N 49°12' W 126°54'918.8 030 / 51016.927.0 12.0 11.0
2017-May-27 10:30N 49°09' W 126°41'1020.7
2017-May-27 10:01N 49°03' W 126°28'1020.7
2017-May-27 09:30N 48°57' W 126°16'1020.8
2017-May-27 09:00N 48°50' W 126°03'1020.6
2017-May-27 08:30N 48°45' W 125°50'1121.4
2017-May-27 08:00N 48°39' W 125°36'1121.1
2017-May-27 07:30N 48°33' W 125°23'1020.7
2017-May-27 07:00N 48°32' W 125°07'1121.8
2017-May-27 06:30N 48°32' W 124°51'1121.3
2017-May-27 06:00N 48°28' W 124°36'1122.2
2017-May-27 05:30N 48°24' W 124°20'1122.0
2017-May-27 05:00N 48°20' W 124°05'1122.5
2017-May-27 04:30N 48°16' W 123°49'1122.8
2017-May-27 04:00N 48°14' W 123°32'917.2
2017-May-27 03:30N 48°09' W 123°22'918.0
2017-May-27 02:59N 48°12' W 123°09'1120.5
2017-May-27 02:28N 48°12' W 122°53'919.6
2017-May-27 02:00N 48°08' W 122°41'918.6
2017-May-27 01:30N 47°59' W 122°36'919.1
2017-May-27 01:00N 47°52' W 122°28'1020.3
2017-May-27 00:30N 47°41' W 122°27'5 8.2
2017-May-26 23:55N 47°38' W 122°23'0 0.0
2017-May-26 23:28N 47°38' W 122°23'0 0.0
2017-May-26 22:58N 47°38' W 122°23'0 0.0
2017-May-26 22:28N 47°38' W 122°23'0 0.0
2017-May-26 21:58N 47°38' W 122°23'0 0.0
2017-May-26 21:28N 47°38' W 122°23'0 0.0
2017-May-26 20:58N 47°38' W 122°23'0 0.0
2017-May-26 20:28N 47°38' W 122°23'0 0.0
2017-May-26 19:58N 47°38' W 122°23'0 0.0
2017-May-26 19:25N 47°38' W 122°23'0 0.0
2017-May-26 18:58N 47°38' W 122°23'0 0.0
2017-May-26 18:28N 47°38' W 122°23'0 0.0
2017-May-26 17:58N 47°38' W 122°23'0 0.0
2017-May-26 17:28N 47°38' W 122°23'0 0.0
2017-May-26 16:58N 47°38' W 122°23'0 0.0
2017-May-26 16:29N 47°38' W 122°23'0 0.0
2017-May-26 15:58N 47°38' W 122°23'0 0.0
2017-May-26 15:29N 47°38' W 122°23'0 0.0
2017-May-26 14:58N 47°38' W 122°23'0 0.0
2017-May-26 14:29N 47°38' W 122°23'0 0.0
2017-May-26 13:28N 47°38' W 122°23'0 0.0
2017-May-26 12:59N 47°38' W 122°23'0 0.1
2017-May-26 12:31N 47°38' W 122°23'2 4.4
2017-May-26 12:01N 47°37' W 122°26'714.9
2017-May-26 11:30N 47°45' W 122°27'510.5
2017-May-26 11:00N 47°50' W 122°28'612.5
2017-May-26 10:31N 47°56' W 122°31'713.3
2017-May-26 10:00N 48°01' W 122°38'813.0
2017-May-26 09:25N 48°08' W 122°42'615.8
2017-May-26 09:01N 48°11' W 122°51'714.4
2017-May-26 08:30N 48°12' W 123°02'714.6
2017-May-26 08:00N 48°11' W 123°12'714.2
2017-May-26 07:30N 48°10' W 123°23'510.6
2017-May-26 07:00N 48°12' W 123°30'4 7.8
2017-May-26 06:30N 48°13' W 123°36'4 7.8
2017-May-26 06:00N 48°13' W 123°42'4 8.2
2017-May-26 05:28N 48°13' W 123°48'4 8.1
2017-May-26 05:00N 48°14' W 123°54'3 5.6
2017-May-26 04:29N 48°16' W 123°55'3 6.9
2017-May-26 04:00N 48°16' W 123°50'4 7.2
2017-May-26 03:29N 48°16' W 123°45'4 7.5
2017-May-26 03:00N 48°16' W 123°39'4 7.7
2017-May-26 02:30N 48°16' W 123°34'4 7.8
2017-May-26 02:00N 48°18' W 123°28'4 8.7
2017-May-26 01:30N 48°21' W 123°25'4 7.5
2017-May-26 01:00N 48°25' W 123°24'0 0.0
2017-May-25 21:15N 48°25' W 123°24'0 0.0
2017-May-25 17:21N 48°25' W 123°24'0 0.0
2017-May-25 17:00N 48°25' W 123°24'0 0.0
2017-May-25 16:30N 48°25' W 123°24'0 0.0
2017-May-25 16:00N 48°25' W 123°24'0 0.4
2017-May-25 15:30N 48°25' W 123°24'3 6.8
2017-May-25 15:00N 48°21' W 123°24'1312.8
2017-May-25 14:00N 48°13' W 123°39'1019.0
2017-May-25 13:30N 48°14' W 123°53'919.0
2017-May-25 13:00N 48°17' W 124°07'1019.6
2017-May-25 12:31N 48°21' W 124°20'917.8
2017-May-25 12:00N 48°25' W 124°32'917.1
2017-May-25 11:30N 48°28' W 124°44'917.9
2017-May-25 11:00N 48°28' W 124°57'918.7
2017-May-25 10:30N 48°28' W 125°11'917.4
2017-May-25 10:00N 48°32' W 125°23'918.5
2017-May-25 09:30N 48°37' W 125°34'918.5
2017-May-25 09:00N 48°42' W 125°46'918.7
2017-May-25 08:30N 48°48' W 125°57'919.0
2017-May-25 08:00N 48°53' W 126°09'1019.1
2017-May-25 07:30N 48°59' W 126°21'918.9
2017-May-25 07:00N 49°05' W 126°32'918.8
2017-May-25 06:30N 49°10' W 126°44'918.6
2017-May-25 06:00N 49°16' W 126°55'1018.8
2017-May-25 05:30N 49°22' W 127°06'4317.3
2017-May-25 03:00N 49°48' W 128°00'14117.6 330 / 251017.0 9.0 9.0
2017-May-24 19:00N 51°24' W 130°42'13917.4 320 / 251024.0 2.2 10.0 8.110.0
2017-May-24 11:00N 53°12' W 133°06'5819.4 320 / 301025.527.0 8.0 8.0
2017-May-24 08:00N 54°06' W 133°42'6817.1 300 / 301023.127.0 8.0 8.0
2017-May-24 04:00N 55°12' W 134°12'   320 / 301019.0 8.0 8.0
2017-May-21 12:00N 56°18' W 134°24'19121.2 160 / 301013.3 9.0 8.0
2017-May-21 03:00N 53°12' W 133°12'17021.3 150 / 251018.0 8.0 9.0
2017-May-20 19:00N 51°06' W 130°06'15921.3 210 / 121023.0 1.1 10.010.011.0
2017-May-20 11:32N 49°19' W 127°02'821.0
2017-May-20 11:10N 49°15' W 126°52'620.9
2017-May-20 10:52N 49°11' W 126°45'1120.9
2017-May-20 10:20N 49°04' W 126°31'821.2
2017-May-20 09:57N 48°59' W 126°21'1021.5
2017-May-20 09:29N 48°53' W 126°09'1021.3
2017-May-20 09:00N 48°47' W 125°56'1121.5
2017-May-20 08:29N 48°41' W 125°42'1121.7
2017-May-20 07:59N 48°36' W 125°28'1220.9
2017-May-20 07:24N 48°31' W 125°11'922.0
2017-May-20 07:00N 48°31' W 124°58'3168.7
2017-May-20 07:00N 48°30' W 124°54'817.0 300 / 131020.0 10.0 11.0
2017-May-20 06:30N 48°30' W 124°42'1021.0
2017-May-20 06:00N 48°26' W 124°27'1020.2
2017-May-20 05:30N 48°22' W 124°13'1019.5
2017-May-20 05:00N 48°18' W 123°59'919.2
2017-May-20 04:30N 48°16' W 123°45'1019.1
2017-May-20 04:00N 48°15' W 123°31'5568.7
2017-May-20 04:00N 48°12' W 123°24'3 6.1 250 / 201019.0 5.4 10.0 8.1 9.8
2017-May-20 03:30N 48°09' W 123°23'815.8
2017-May-20 03:00N 48°11' W 123°11'1119.7
2017-May-20 02:25N 48°12' W 122°54'819.3
2017-May-20 01:59N 48°09' W 122°43'1020.0
2017-May-20 01:29N 47°60' W 122°36'1020.4
2017-May-20 01:00N 47°52' W 122°28'1020.0
2017-May-20 00:30N 47°42' W 122°27'510.3
2017-May-20 00:00N 47°38' W 122°23'0 0.1
2017-May-19 23:28N 47°38' W 122°23'0 0.0
2017-May-19 22:57N 47°38' W 122°23'0 0.0
2017-May-19 22:27N 47°38' W 122°23'0 0.0
2017-May-19 21:57N 47°38' W 122°23'0 0.0
2017-May-19 21:28N 47°38' W 122°23'0 0.0
2017-May-19 20:57N 47°38' W 122°23'0 0.0
2017-May-19 20:28N 47°38' W 122°23'0 0.0
2017-May-19 19:57N 47°38' W 122°23'0 0.0
2017-May-19 19:27N 47°38' W 122°23'0 0.0
2017-May-19 18:58N 47°38' W 122°23'0 0.0
2017-May-19 18:28N 47°38' W 122°23'0 0.0
2017-May-19 17:57N 47°38' W 122°23'0 0.0
2017-May-19 17:27N 47°38' W 122°23'0 0.0
2017-May-19 16:58N 47°38' W 122°23'0 0.0
2017-May-19 16:27N 47°38' W 122°23'0 0.0
2017-May-19 15:57N 47°38' W 122°23'0 0.0
2017-May-19 15:27N 47°38' W 122°23'0 0.0
2017-May-19 14:57N 47°38' W 122°23'0 0.0
2017-May-19 14:27N 47°38' W 122°23'0 0.0
2017-May-19 13:28N 47°38' W 122°23'0 0.0
2017-May-19 12:57N 47°38' W 122°23'0 0.0
2017-May-19 12:30N 47°38' W 122°23'2 3.7
2017-May-19 12:00N 47°38' W 122°26'713.4
2017-May-19 11:31N 47°44' W 122°27'815.5
2017-May-19 11:00N 47°52' W 122°29'713.4
2017-May-19 10:30N 47°57' W 122°35'713.4
2017-May-19 10:00N 48°04' W 122°39'712.9
2017-May-19 09:26N 48°10' W 122°46'614.1
2017-May-19 09:01N 48°11' W 122°54'815.4
2017-May-19 08:31N 48°12' W 123°06'815.2
2017-May-19 08:01N 48°11' W 123°17'510.9
2017-May-19 07:31N 48°10' W 123°25'714.3
2017-May-19 07:00N 48°13' W 123°35'816.0
2017-May-19 06:30N 48°13' W 123°47'815.2
2017-May-19 06:00N 48°14' W 123°58'816.2
2017-May-19 05:31N 48°18' W 124°09'816.0
2017-May-19 05:00N 48°21' W 124°20'3 5.8
2017-May-19 04:30N 48°24' W 124°21'5 9.8
2017-May-19 04:00N 48°22' W 124°14'4 8.3
2017-May-19 03:30N 48°21' W 124°08'510.2
2017-May-19 03:01N 48°19' W 124°01'167.4
2017-May-19 03:00N 48°18' W 124°00'4 8.5 300 / 161020.0 5.4 11.011.010.0
2017-May-19 02:30N 48°17' W 123°54'510.3
2017-May-19 02:00N 48°16' W 123°46'713.2
2017-May-19 01:31N 48°15' W 123°37'611.8
2017-May-19 01:01N 48°17' W 123°28'612.4
2017-May-19 00:30N 48°23' W 123°24'2 4.1
2017-May-18 23:59N 48°25' W 123°24'0 0.0
2017-May-18 23:29N 48°25' W 123°24'0 0.0
2017-May-18 22:59N 48°25' W 123°24'0 0.0
2017-May-18 22:29N 48°25' W 123°24'0 0.0
2017-May-18 21:59N 48°25' W 123°24'0 0.0
2017-May-18 21:29N 48°25' W 123°24'0 0.0
2017-May-18 20:59N 48°25' W 123°24'0 0.0
2017-May-18 20:29N 48°25' W 123°24'0 0.0
2017-May-18 19:59N 48°25' W 123°24'0 0.0
2017-May-18 19:23N 48°25' W 123°24'0 0.0
2017-May-18 18:59N 48°25' W 123°24'0 0.0
2017-May-18 18:26N 48°25' W 123°24'0 0.0
2017-May-18 17:59N 48°25' W 123°24'0 0.0
2017-May-18 17:29N 48°25' W 123°24'0 0.0
2017-May-18 16:53N 48°25' W 123°24'0 0.0
2017-May-18 16:29N 48°25' W 123°24'0 0.0
2017-May-18 15:59N 48°25' W 123°24'0 0.0
2017-May-18 15:29N 48°25' W 123°24'0 0.0
2017-May-18 14:59N 48°25' W 123°24'1 1.4
2017-May-18 14:00N 48°24' W 123°24'510.1
2017-May-18 13:30N 48°19' W 123°25'715.0
2017-May-18 13:00N 48°14' W 123°33'917.0
2017-May-18 12:30N 48°14' W 123°46'816.4
2017-May-18 12:00N 48°14' W 123°58'816.9
2017-May-18 11:30N 48°18' W 124°10'816.4
2017-May-18 11:00N 48°21' W 124°21'611.2
2017-May-18 10:30N 48°25' W 124°27'611.3
2017-May-18 10:00N 48°24' W 124°19'611.3
2017-May-18 09:30N 48°21' W 124°11'611.3
2017-May-18 09:00N 48°19' W 124°03'5 9.9
2017-May-18 08:30N 48°17' W 123°56'5 9.8
2017-May-18 08:00N 48°17' W 123°49'714.9
2017-May-18 07:30N 48°15' W 123°38'713.5
2017-May-18 07:00N 48°18' W 123°29'713.6
2017-May-18 06:30N 48°23' W 123°22'612.2
2017-May-18 06:00N 48°25' W 123°13'714.5
2017-May-18 05:30N 48°32' W 123°13'713.6
2017-May-18 05:00N 48°39' W 123°15'611.7
2017-May-18 04:30N 48°44' W 123°10'713.5
2017-May-18 04:00N 48°47' W 123°02'  
Track history (hours):
 
Tides and Currents Weather Stations Pressure Air Temp Water Temp Dewpoint Dewpoint Depression Visibility Wind Speed Wind Dir Waves Ship Positions

Explorer Of The Seas

Operator: Royal Caribbean Cruises Ltd

Last reported at 2017-May-28 04:00 UTC. Time now 2017-May-28 06:46 UTC.
Position N 53°24' W 133°18'.

Length 311 m; draft 9.2 m.

Type: Passenger vessel. MMSI: 311316000.

Wind from 020 at 17 knots

Barometer 1019.0 mb
Air temperature 9.0 ° C
Water temperature 9.0 ° C

Date/timePositionNaut miles runAvg speedWind from/ knotsBaromVisibWave heightAir tempDewpointWater temp
2017-May-28 04:00N 53°24' W 133°18'9519.0 020 / 171019.0 9.0 9.0
2017-May-27 23:00N 52°06' W 131°48'323386.7
2017-May-27 22:09N 48°34' W 125°25'1 8.6
2017-May-27 22:00N 48°34' W 125°24'5 8.6
2017-May-27 21:29N 48°32' W 125°18'4 9.4
2017-May-27 21:00N 48°32' W 125°11'241120.2
2017-May-27 19:00N 51°00' W 130°06'8120.4 360 / 201021.0 5.4 10.010.010.5
2017-May-27 15:00N 50°06' W 128°30'3719.9 360 / 221019.0 12.012.012.0
2017-May-27 13:08N 49°43' W 127°45'420.5
2017-May-27 12:57N 49°40' W 127°41'920.2
2017-May-27 12:30N 49°35' W 127°30'1020.4
2017-May-27 12:00N 49°28' W 127°18'1120.7
2017-May-27 11:27N 49°22' W 127°04'921.1
2017-May-27 11:00N 49°15' W 126°53'3194.9
2017-May-27 11:00N 49°12' W 126°54'918.8 030 / 51016.927.0 12.0 11.0
2017-May-27 10:30N 49°09' W 126°41'1020.7
2017-May-27 10:01N 49°03' W 126°28'1020.7
2017-May-27 09:30N 48°57' W 126°16'1020.8
2017-May-27 09:00N 48°50' W 126°03'1020.6
2017-May-27 08:30N 48°45' W 125°50'1121.4
2017-May-27 08:00N 48°39' W 125°36'1121.1
2017-May-27 07:30N 48°33' W 125°23'1020.7
2017-May-27 07:00N 48°32' W 125°07'1121.8
2017-May-27 06:30N 48°32' W 124°51'1121.3
2017-May-27 06:00N 48°28' W 124°36'1122.2
2017-May-27 05:30N 48°24' W 124°20'1122.0
2017-May-27 05:00N 48°20' W 124°05'1122.5
2017-May-27 04:30N 48°16' W 123°49'1122.8
2017-May-27 04:00N 48°14' W 123°32'917.2
2017-May-27 03:30N 48°09' W 123°22'918.0
2017-May-27 02:59N 48°12' W 123°09'1120.5
2017-May-27 02:28N 48°12' W 122°53'919.6
2017-May-27 02:00N 48°08' W 122°41'918.6
2017-May-27 01:30N 47°59' W 122°36'919.1
2017-May-27 01:00N 47°52' W 122°28'1020.3
2017-May-27 00:30N 47°41' W 122°27'5 8.2
2017-May-26 23:55N 47°38' W 122°23'0 0.0
2017-May-26 23:28N 47°38' W 122°23'0 0.0
2017-May-26 22:58N 47°38' W 122°23'0 0.0
2017-May-26 22:28N 47°38' W 122°23'0 0.0
2017-May-26 21:58N 47°38' W 122°23'0 0.0
2017-May-26 21:28N 47°38' W 122°23'0 0.0
2017-May-26 20:58N 47°38' W 122°23'0 0.0
2017-May-26 20:28N 47°38' W 122°23'0 0.0
2017-May-26 19:58N 47°38' W 122°23'0 0.0
2017-May-26 19:25N 47°38' W 122°23'0 0.0
2017-May-26 18:58N 47°38' W 122°23'0 0.0
2017-May-26 18:28N 47°38' W 122°23'0 0.0
2017-May-26 17:58N 47°38' W 122°23'0 0.0
2017-May-26 17:28N 47°38' W 122°23'0 0.0
2017-May-26 16:58N 47°38' W 122°23'0 0.0
2017-May-26 16:29N 47°38' W 122°23'0 0.0
2017-May-26 15:58N 47°38' W 122°23'0 0.0
2017-May-26 15:29N 47°38' W 122°23'0 0.0
2017-May-26 14:58N 47°38' W 122°23'0 0.0
2017-May-26 14:29N 47°38' W 122°23'0 0.0
2017-May-26 13:28N 47°38' W 122°23'0 0.0
2017-May-26 12:59N 47°38' W 122°23'0 0.1
2017-May-26 12:31N 47°38' W 122°23'2 4.4
2017-May-26 12:01N 47°37' W 122°26'714.9
2017-May-26 11:30N 47°45' W 122°27'510.5
2017-May-26 11:00N 47°50' W 122°28'612.5
2017-May-26 10:31N 47°56' W 122°31'713.3
2017-May-26 10:00N 48°01' W 122°38'813.0
2017-May-26 09:25N 48°08' W 122°42'615.8
2017-May-26 09:01N 48°11' W 122°51'714.4
2017-May-26 08:30N 48°12' W 123°02'714.6
2017-May-26 08:00N 48°11' W 123°12'714.2
2017-May-26 07:30N 48°10' W 123°23'510.6
2017-May-26 07:00N 48°12' W 123°30'4 7.8
2017-May-26 06:30N 48°13' W 123°36'4 7.8
2017-May-26 06:00N 48°13' W 123°42'4 8.2
2017-May-26 05:28N 48°13' W 123°48'4 8.1
2017-May-26 05:00N 48°14' W 123°54'3 5.6
2017-May-26 04:29N 48°16' W 123°55'3 6.9
2017-May-26 04:00N 48°16' W 123°50'4 7.2
2017-May-26 03:29N 48°16' W 123°45'4 7.5
2017-May-26 03:00N 48°16' W 123°39'4 7.7
2017-May-26 02:30N 48°16' W 123°34'4 7.8
2017-May-26 02:00N 48°18' W 123°28'4 8.7
2017-May-26 01:30N 48°21' W 123°25'4 7.5
2017-May-26 01:00N 48°25' W 123°24'0 0.0
2017-May-25 21:15N 48°25' W 123°24'0 0.0
2017-May-25 17:21N 48°25' W 123°24'0 0.0
2017-May-25 17:00N 48°25' W 123°24'0 0.0
2017-May-25 16:30N 48°25' W 123°24'0 0.0
2017-May-25 16:00N 48°25' W 123°24'0 0.4
2017-May-25 15:30N 48°25' W 123°24'3 6.8
2017-May-25 15:00N 48°21' W 123°24'1312.8
2017-May-25 14:00N 48°13' W 123°39'1019.0
2017-May-25 13:30N 48°14' W 123°53'919.0
2017-May-25 13:00N 48°17' W 124°07'1019.6
2017-May-25 12:31N 48°21' W 124°20'917.8
2017-May-25 12:00N 48°25' W 124°32'917.1
2017-May-25 11:30N 48°28' W 124°44'917.9
2017-May-25 11:00N 48°28' W 124°57'918.7
2017-May-25 10:30N 48°28' W 125°11'917.4
2017-May-25 10:00N 48°32' W 125°23'918.5
2017-May-25 09:30N 48°37' W 125°34'918.5
2017-May-25 09:00N 48°42' W 125°46'918.7
2017-May-25 08:30N 48°48' W 125°57'919.0
2017-May-25 08:00N 48°53' W 126°09'1019.1
2017-May-25 07:30N 48°59' W 126°21'918.9
2017-May-25 07:00N 49°05' W 126°32'918.8
2017-May-25 06:30N 49°10' W 126°44'918.6
2017-May-25 06:00N 49°16' W 126°55'1018.8
2017-May-25 05:30N 49°22' W 127°06'4317.3
2017-May-25 03:00N 49°48' W 128°00'14117.6 330 / 251017.0 9.0 9.0
2017-May-24 19:00N 51°24' W 130°42'13917.4 320 / 251024.0 2.2 10.0 8.110.0
2017-May-24 11:00N 53°12' W 133°06'5819.4 320 / 301025.527.0 8.0 8.0
2017-May-24 08:00N 54°06' W 133°42'6817.1 300 / 301023.127.0 8.0 8.0
2017-May-24 04:00N 55°12' W 134°12'   320 / 301019.0 8.0 8.0
2017-May-21 12:00N 56°18' W 134°24'19121.2 160 / 301013.3 9.0 8.0
2017-May-21 03:00N 53°12' W 133°12'17021.3 150 / 251018.0 8.0 9.0
2017-May-20 19:00N 51°06' W 130°06'15921.3 210 / 121023.0 1.1 10.010.011.0
2017-May-20 11:32N 49°19' W 127°02'821.0
2017-May-20 11:10N 49°15' W 126°52'620.9
2017-May-20 10:52N 49°11' W 126°45'1120.9
2017-May-20 10:20N 49°04' W 126°31'821.2
2017-May-20 09:57N 48°59' W 126°21'1021.5
2017-May-20 09:29N 48°53' W 126°09'1021.3
2017-May-20 09:00N 48°47' W 125°56'1121.5
2017-May-20 08:29N 48°41' W 125°42'1121.7
2017-May-20 07:59N 48°36' W 125°28'1220.9
2017-May-20 07:24N 48°31' W 125°11'922.0
2017-May-20 07:00N 48°31' W 124°58'3168.7
2017-May-20 07:00N 48°30' W 124°54'817.0 300 / 131020.0 10.0 11.0
2017-May-20 06:30N 48°30' W 124°42'1021.0
2017-May-20 06:00N 48°26' W 124°27'1020.2
2017-May-20 05:30N 48°22' W 124°13'1019.5
2017-May-20 05:00N 48°18' W 123°59'919.2
2017-May-20 04:30N 48°16' W 123°45'1019.1
2017-May-20 04:00N 48°15' W 123°31'5568.7
2017-May-20 04:00N 48°12' W 123°24'3 6.1 250 / 201019.0 5.4 10.0 8.1 9.8
2017-May-20 03:30N 48°09' W 123°23'815.8
2017-May-20 03:00N 48°11' W 123°11'1119.7
2017-May-20 02:25N 48°12' W 122°54'819.3
2017-May-20 01:59N 48°09' W 122°43'1020.0
2017-May-20 01:29N 47°60' W 122°36'1020.4
2017-May-20 01:00N 47°52' W 122°28'1020.0
2017-May-20 00:30N 47°42' W 122°27'510.3
2017-May-20 00:00N 47°38' W 122°23'0 0.1
2017-May-19 23:28N 47°38' W 122°23'0 0.0
2017-May-19 22:57N 47°38' W 122°23'0 0.0
2017-May-19 22:27N 47°38' W 122°23'0 0.0
2017-May-19 21:57N 47°38' W 122°23'0 0.0
2017-May-19 21:28N 47°38' W 122°23'0 0.0
2017-May-19 20:57N 47°38' W 122°23'0 0.0
2017-May-19 20:28N 47°38' W 122°23'0 0.0
2017-May-19 19:57N 47°38' W 122°23'0 0.0
2017-May-19 19:27N 47°38' W 122°23'0 0.0
2017-May-19 18:58N 47°38' W 122°23'0 0.0
2017-May-19 18:28N 47°38' W 122°23'0 0.0
2017-May-19 17:57N 47°38' W 122°23'0 0.0
2017-May-19 17:27N 47°38' W 122°23'0 0.0
2017-May-19 16:58N 47°38' W 122°23'0 0.0
2017-May-19 16:27N 47°38' W 122°23'0 0.0
2017-May-19 15:57N 47°38' W 122°23'0 0.0
2017-May-19 15:27N 47°38' W 122°23'0 0.0
2017-May-19 14:57N 47°38' W 122°23'0 0.0
2017-May-19 14:27N 47°38' W 122°23'0 0.0
2017-May-19 13:28N 47°38' W 122°23'0 0.0
2017-May-19 12:57N 47°38' W 122°23'0 0.0
2017-May-19 12:30N 47°38' W 122°23'2 3.7
2017-May-19 12:00N 47°38' W 122°26'713.4
2017-May-19 11:31N 47°44' W 122°27'815.5
2017-May-19 11:00N 47°52' W 122°29'713.4
2017-May-19 10:30N 47°57' W 122°35'713.4
2017-May-19 10:00N 48°04' W 122°39'712.9
2017-May-19 09:26N 48°10' W 122°46'614.1
2017-May-19 09:01N 48°11' W 122°54'815.4
2017-May-19 08:31N 48°12' W 123°06'815.2
2017-May-19 08:01N 48°11' W 123°17'510.9
2017-May-19 07:31N 48°10' W 123°25'714.3
2017-May-19 07:00N 48°13' W 123°35'816.0
2017-May-19 06:30N 48°13' W 123°47'815.2
2017-May-19 06:00N 48°14' W 123°58'816.2
2017-May-19 05:31N 48°18' W 124°09'816.0
2017-May-19 05:00N 48°21' W 124°20'3 5.8
2017-May-19 04:30N 48°24' W 124°21'5 9.8
2017-May-19 04:00N 48°22' W 124°14'4 8.3
2017-May-19 03:30N 48°21' W 124°08'510.2
2017-May-19 03:01N 48°19' W 124°01'167.4
2017-May-19 03:00N 48°18' W 124°00'4 8.5 300 / 161020.0 5.4 11.011.010.0
2017-May-19 02:30N 48°17' W 123°54'510.3
2017-May-19 02:00N 48°16' W 123°46'713.2
2017-May-19 01:31N 48°15' W 123°37'611.8
2017-May-19 01:01N 48°17' W 123°28'612.4
2017-May-19 00:30N 48°23' W 123°24'2 4.1
2017-May-18 23:59N 48°25' W 123°24'0 0.0
2017-May-18 23:29N 48°25' W 123°24'0 0.0
2017-May-18 22:59N 48°25' W 123°24'0 0.0
2017-May-18 22:29N 48°25' W 123°24'0 0.0
2017-May-18 21:59N 48°25' W 123°24'0 0.0
2017-May-18 21:29N 48°25' W 123°24'0 0.0
2017-May-18 20:59N 48°25' W 123°24'0 0.0
2017-May-18 20:29N 48°25' W 123°24'0 0.0
2017-May-18 19:59N 48°25' W 123°24'0 0.0
2017-May-18 19:23N 48°25' W 123°24'0 0.0
2017-May-18 18:59N 48°25' W 123°24'0 0.0
2017-May-18 18:26N 48°25' W 123°24'0 0.0
2017-May-18 17:59N 48°25' W 123°24'0 0.0
2017-May-18 17:29N 48°25' W 123°24'0 0.0
2017-May-18 16:53N 48°25' W 123°24'0 0.0
2017-May-18 16:29N 48°25' W 123°24'0 0.0
2017-May-18 15:59N 48°25' W 123°24'0 0.0
2017-May-18 15:29N 48°25' W 123°24'0 0.0
2017-May-18 14:59N 48°25' W 123°24'1 1.4
2017-May-18 14:00N 48°24' W 123°24'510.1
2017-May-18 13:30N 48°19' W 123°25'715.0
2017-May-18 13:00N 48°14' W 123°33'917.0
2017-May-18 12:30N 48°14' W 123°46'816.4
2017-May-18 12:00N 48°14' W 123°58'816.9
2017-May-18 11:30N 48°18' W 124°10'816.4
2017-May-18 11:00N 48°21' W 124°21'611.2
2017-May-18 10:30N 48°25' W 124°27'611.3
2017-May-18 10:00N 48°24' W 124°19'611.3
2017-May-18 09:30N 48°21' W 124°11'611.3
2017-May-18 09:00N 48°19' W 124°03'5 9.9
2017-May-18 08:30N 48°17' W 123°56'5 9.8
2017-May-18 08:00N 48°17' W 123°49'714.9
2017-May-18 07:30N 48°15' W 123°38'713.5
2017-May-18 07:00N 48°18' W 123°29'713.6
2017-May-18 06:30N 48°23' W 123°22'612.2
2017-May-18 06:00N 48°25' W 123°13'714.5
2017-May-18 05:30N 48°32' W 123°13'713.6
2017-May-18 05:00N 48°39' W 123°15'611.7
2017-May-18 04:30N 48°44' W 123°10'713.5
2017-May-18 04:00N 48°47' W 123°02'  

Dump ship's entire track history